HAZ2817 ZSHC-ZBSJ
Flight info
| Callsign | HAZ2817 |
|---|---|
| Flight time | 2h 0m |
| Altitude | 36100 |
| Route | NIVIK8D NIVIK W135 LUPVI R343 HFE B208 OBMEP/K0859S1130 W56 ORODO/K0852S1160 W62 KARVU/K0850S1130 W62 IGDID |
| Aircraft | B738/M-SDE2E3FGHIRWXY/LB1 |
Departure
| Time | 2026-05-04 21:16 |
|---|---|
| Airport | Hangzhou Xiaoshan International Airport (ZSHC) |
Arrival
| Time | 2026-05-04 23:16 |
|---|---|
| Airport | Shijiazhuang Zhengding International Airport (ZBSJ) |
| Time | Latitude | Longitude | Altitude | Speed | Heading |
|---|---|---|---|---|---|
| 2026-05-04 20:49 | 30.23362 | 120.43098 | 28 ft | 0 kts | 62° |
| 2026-05-04 21:05 | 30.23357 | 120.43087 | 28 ft | 2 kts | 62° |
| 2026-05-04 21:05 | 30.23352 | 120.43070 | 28 ft | 2 kts | 90° |
| 2026-05-04 21:05 | 30.23354 | 120.43053 | 28 ft | 2 kts | 114° |
| 2026-05-04 21:05 | 30.23363 | 120.43039 | 28 ft | 2 kts | 140° |
| 2026-05-04 21:06 | 30.23369 | 120.43034 | 28 ft | 1 kts | 155° |
| 2026-05-04 21:06 | 30.23373 | 120.43031 | 28 ft | 0 kts | 152° |
| 2026-05-04 21:08 | 30.23370 | 120.43034 | 28 ft | 2 kts | 151° |
| 2026-05-04 21:08 | 30.23335 | 120.43056 | 28 ft | 8 kts | 151° |
| 2026-05-04 21:08 | 30.23267 | 120.43098 | 28 ft | 14 kts | 151° |
| 2026-05-04 21:09 | 30.23174 | 120.43156 | 28 ft | 12 kts | 152° |
| 2026-05-04 21:09 | 30.23108 | 120.43193 | 28 ft | 8 kts | 154° |
| 2026-05-04 21:09 | 30.23065 | 120.43236 | 28 ft | 8 kts | 105° |
| 2026-05-04 21:09 | 30.23076 | 120.43297 | 28 ft | 7 kts | 63° |
| 2026-05-04 21:10 | 30.23109 | 120.43370 | 28 ft | 13 kts | 62° |
| 2026-05-04 21:10 | 30.23153 | 120.43469 | 28 ft | 13 kts | 64° |
| 2026-05-04 21:10 | 30.23194 | 120.43562 | 28 ft | 12 kts | 62° |
| 2026-05-04 21:10 | 30.23235 | 120.43652 | 28 ft | 12 kts | 62° |
| 2026-05-04 21:11 | 30.23272 | 120.43737 | 28 ft | 11 kts | 63° |
| 2026-05-04 21:11 | 30.23308 | 120.43818 | 28 ft | 11 kts | 63° |
| 2026-05-04 21:11 | 30.23352 | 120.43918 | 28 ft | 15 kts | 63° |
| 2026-05-04 21:11 | 30.23407 | 120.44044 | 28 ft | 18 kts | 63° |
| 2026-05-04 21:12 | 30.23464 | 120.44171 | 28 ft | 17 kts | 62° |
| 2026-05-04 21:12 | 30.23519 | 120.44294 | 28 ft | 16 kts | 61° |
| 2026-05-04 21:12 | 30.23570 | 120.44411 | 28 ft | 16 kts | 63° |
| 2026-05-04 21:12 | 30.23621 | 120.44526 | 28 ft | 15 kts | 63° |
| 2026-05-04 21:13 | 30.23670 | 120.44635 | 28 ft | 14 kts | 63° |
| 2026-05-04 21:13 | 30.23715 | 120.44740 | 28 ft | 14 kts | 61° |
| 2026-05-04 21:13 | 30.23760 | 120.44840 | 28 ft | 13 kts | 64° |
| 2026-05-04 21:13 | 30.23800 | 120.44928 | 28 ft | 10 kts | 62° |
| 2026-05-04 21:14 | 30.23816 | 120.44994 | 28 ft | 7 kts | 90° |
| 2026-05-04 21:14 | 30.23789 | 120.45037 | 28 ft | 6 kts | 149° |
| 2026-05-04 21:14 | 30.23748 | 120.45061 | 28 ft | 6 kts | 152° |
| 2026-05-04 21:14 | 30.23709 | 120.45083 | 28 ft | 5 kts | 162° |
| 2026-05-04 21:15 | 30.23678 | 120.45073 | 28 ft | 4 kts | 220° |
| 2026-05-04 21:15 | 30.23660 | 120.45045 | 28 ft | 4 kts | 238° |
| 2026-05-04 21:15 | 30.23647 | 120.45018 | 28 ft | 4 kts | 241° |
| 2026-05-04 21:15 | 30.23603 | 120.44920 | 28 ft | 33 kts | 242° |
| 2026-05-04 21:16 | 30.23383 | 120.44423 | 28 ft | 103 kts | 245° |
| 2026-05-04 21:16 | 30.22959 | 120.43456 | 28 ft | 161 kts | 241° |
| 2026-05-04 21:16 | 30.22360 | 120.42253 | 273 ft | 185 kts | 236° |
| 2026-05-04 21:16 | 30.21709 | 120.41102 | 1143 ft | 175 kts | 237° |
| 2026-05-04 21:17 | 30.21024 | 120.40012 | 1839 ft | 173 kts | 225° |
| 2026-05-04 21:17 | 30.20142 | 120.38972 | 2196 ft | 186 kts | 223° |
| 2026-05-04 21:17 | 30.19217 | 120.37870 | 2592 ft | 198 kts | 224° |
| 2026-05-04 21:17 | 30.18241 | 120.36650 | 2960 ft | 211 kts | 225° |
| 2026-05-04 21:18 | 30.17215 | 120.35353 | 3327 ft | 225 kts | 225° |
| 2026-05-04 21:18 | 30.16119 | 120.33977 | 3707 ft | 239 kts | 225° |
| 2026-05-04 21:18 | 30.14985 | 120.32551 | 4252 ft | 245 kts | 225° |
| 2026-05-04 21:18 | 30.13816 | 120.31082 | 4800 ft | 252 kts | 226° |
| 2026-05-04 21:19 | 30.12611 | 120.29571 | 5331 ft | 261 kts | 226° |
| 2026-05-04 21:19 | 30.11373 | 120.27941 | 5747 ft | 275 kts | 232° |
| 2026-05-04 21:19 | 30.10584 | 120.26320 | 6223 ft | 280 kts | 251° |
| 2026-05-04 21:19 | 30.10386 | 120.24094 | 6788 ft | 285 kts | 277° |
| 2026-05-04 21:20 | 30.11003 | 120.21940 | 6917 ft | 283 kts | 301° |
| 2026-05-04 21:20 | 30.12277 | 120.20249 | 6914 ft | 280 kts | 321° |
| 2026-05-04 21:20 | 30.13918 | 120.19035 | 6916 ft | 280 kts | 332° |
| 2026-05-04 21:20 | 30.15654 | 120.17986 | 6905 ft | 280 kts | 333° |
| 2026-05-04 21:21 | 30.17382 | 120.16938 | 6906 ft | 279 kts | 332° |
| 2026-05-04 21:21 | 30.19112 | 120.15863 | 6909 ft | 279 kts | 332° |
| 2026-05-04 21:21 | 30.20822 | 120.14786 | 6907 ft | 280 kts | 332° |
| 2026-05-04 21:21 | 30.22520 | 120.13711 | 6910 ft | 281 kts | 332° |
| 2026-05-04 21:22 | 30.24289 | 120.12594 | 7335 ft | 291 kts | 332° |
| 2026-05-04 21:22 | 30.26056 | 120.11478 | 7811 ft | 287 kts | 332° |
| 2026-05-04 21:22 | 30.27820 | 120.10365 | 7900 ft | 286 kts | 332° |
| 2026-05-04 21:22 | 30.29374 | 120.09382 | 7899 ft | 281 kts | 332° |
| 2026-05-04 21:23 | 30.31033 | 120.08333 | 7897 ft | 281 kts | 332° |
| 2026-05-04 21:23 | 30.32764 | 120.07242 | 7898 ft | 281 kts | 332° |
| 2026-05-04 21:23 | 30.34468 | 120.06166 | 7893 ft | 280 kts | 331° |
| 2026-05-04 21:23 | 30.36195 | 120.05075 | 7897 ft | 280 kts | 332° |
| 2026-05-04 21:24 | 30.37898 | 120.03999 | 7898 ft | 281 kts | 331° |
| 2026-05-04 21:24 | 30.39642 | 120.02895 | 7896 ft | 282 kts | 332° |
| 2026-05-04 21:24 | 30.41363 | 120.01804 | 7895 ft | 281 kts | 331° |
| 2026-05-04 21:24 | 30.43080 | 120.00716 | 7892 ft | 281 kts | 332° |
| 2026-05-04 21:25 | 30.44819 | 119.99615 | 7939 ft | 289 kts | 332° |
| 2026-05-04 21:25 | 30.46609 | 119.98483 | 8640 ft | 291 kts | 332° |
| 2026-05-04 21:25 | 30.48371 | 119.97368 | 9508 ft | 287 kts | 332° |
| 2026-05-04 21:25 | 30.50121 | 119.96258 | 10232 ft | 289 kts | 331° |
| 2026-05-04 21:26 | 30.51917 | 119.95120 | 10702 ft | 301 kts | 331° |
| 2026-05-04 21:26 | 30.53794 | 119.93932 | 11110 ft | 315 kts | 330° |
| 2026-05-04 21:26 | 30.55784 | 119.92673 | 11526 ft | 329 kts | 330° |
| 2026-05-04 21:26 | 30.57843 | 119.91375 | 11908 ft | 344 kts | 330° |
| 2026-05-04 21:27 | 30.60007 | 119.90007 | 12269 ft | 358 kts | 330° |
| 2026-05-04 21:27 | 30.62290 | 119.88781 | 12842 ft | 366 kts | 339° |
| 2026-05-04 21:27 | 30.64808 | 119.88163 | 13514 ft | 374 kts | 354° |
| 2026-05-04 21:27 | 30.67415 | 119.88371 | 14213 ft | 380 kts | 8° |
| 2026-05-04 21:28 | 30.70011 | 119.89053 | 14932 ft | 385 kts | 11° |
| 2026-05-04 21:28 | 30.72656 | 119.89771 | 15605 ft | 389 kts | 8° |
| 2026-05-04 21:28 | 30.75349 | 119.90005 | 16273 ft | 389 kts | 352° |
| 2026-05-04 21:28 | 30.77952 | 119.89262 | 16943 ft | 386 kts | 334° |
| 2026-05-04 21:29 | 30.80270 | 119.87732 | 17618 ft | 385 kts | 322° |
| 2026-05-04 21:29 | 30.82426 | 119.85896 | 18277 ft | 388 kts | 320° |
| 2026-05-04 21:29 | 30.84577 | 119.83987 | 18933 ft | 391 kts | 320° |
| 2026-05-04 21:29 | 30.86776 | 119.82035 | 19569 ft | 394 kts | 320° |
| 2026-05-04 21:30 | 30.88974 | 119.80102 | 20195 ft | 398 kts | 320° |
| 2026-05-04 21:30 | 30.91176 | 119.78182 | 20821 ft | 400 kts | 320° |
| 2026-05-04 21:30 | 30.93432 | 119.76226 | 21447 ft | 403 kts | 321° |
| 2026-05-04 21:30 | 30.95710 | 119.74256 | 22010 ft | 407 kts | 321° |
| 2026-05-04 21:31 | 31.00292 | 119.70304 | 23133 ft | 413 kts | 321° |
| 2026-05-04 21:31 | 31.02589 | 119.68322 | 23677 ft | 416 kts | 321° |
| 2026-05-04 21:31 | 31.04926 | 119.66304 | 24182 ft | 419 kts | 320° |
| 2026-05-04 21:32 | 31.07300 | 119.64253 | 24695 ft | 422 kts | 320° |
| 2026-05-04 21:32 | 31.09670 | 119.62204 | 25214 ft | 424 kts | 320° |
| 2026-05-04 21:32 | 31.12055 | 119.60140 | 25671 ft | 428 kts | 320° |
| 2026-05-04 21:32 | 31.14453 | 119.58063 | 26121 ft | 431 kts | 319° |
| 2026-05-04 21:33 | 31.16860 | 119.55977 | 26611 ft | 433 kts | 319° |
| 2026-05-04 21:33 | 31.19313 | 119.53849 | 27032 ft | 437 kts | 319° |
| 2026-05-04 21:33 | 31.21751 | 119.51735 | 27459 ft | 439 kts | 319° |
| 2026-05-04 21:33 | 31.24215 | 119.49599 | 27934 ft | 441 kts | 319° |
| 2026-05-04 21:34 | 31.26691 | 119.47446 | 28258 ft | 445 kts | 319° |
| 2026-05-04 21:34 | 31.29195 | 119.45271 | 28664 ft | 448 kts | 319° |
| 2026-05-04 21:34 | 31.31724 | 119.43072 | 29112 ft | 449 kts | 319° |
| 2026-05-04 21:34 | 31.34245 | 119.40879 | 29517 ft | 451 kts | 319° |
| 2026-05-04 21:35 | 31.36749 | 119.38702 | 30165 ft | 446 kts | 319° |
| 2026-05-04 21:35 | 31.39223 | 119.36552 | 30664 ft | 444 kts | 318° |
| 2026-05-04 21:35 | 31.41694 | 119.34401 | 31099 ft | 443 kts | 317° |
| 2026-05-04 21:35 | 31.44192 | 119.32224 | 31569 ft | 441 kts | 317° |
| 2026-05-04 21:36 | 31.46644 | 119.30085 | 32000 ft | 440 kts | 317° |
| 2026-05-04 21:36 | 31.49141 | 119.27904 | 32401 ft | 439 kts | 317° |
| 2026-05-04 21:36 | 31.51575 | 119.25777 | 32829 ft | 437 kts | 317° |
| 2026-05-04 21:36 | 31.54024 | 119.23635 | 33193 ft | 437 kts | 317° |
| 2026-05-04 21:37 | 31.56497 | 119.21466 | 33549 ft | 435 kts | 316° |
| 2026-05-04 21:37 | 31.58851 | 119.19228 | 33921 ft | 430 kts | 312° |
| 2026-05-04 21:37 | 31.60980 | 119.16758 | 34258 ft | 424 kts | 306° |
| 2026-05-04 21:37 | 31.62804 | 119.14077 | 34550 ft | 418 kts | 299° |
| 2026-05-04 21:38 | 31.64335 | 119.11153 | 34889 ft | 411 kts | 293° |
| 2026-05-04 21:38 | 31.65519 | 119.08102 | 35181 ft | 406 kts | 287° |
| 2026-05-04 21:38 | 31.66365 | 119.04928 | 35447 ft | 404 kts | 280° |
| 2026-05-04 21:38 | 31.66850 | 119.01715 | 35772 ft | 401 kts | 274° |
| 2026-05-04 21:39 | 31.66986 | 118.98426 | 36034 ft | 400 kts | 268° |
| 2026-05-04 21:39 | 31.66708 | 118.91857 | 36059 ft | 402 kts | 267° |
| 2026-05-04 21:40 | 31.66647 | 118.85304 | 36070 ft | 400 kts | 270° |
| 2026-05-04 21:40 | 31.66926 | 118.78751 | 36067 ft | 400 kts | 272° |
| 2026-05-04 21:41 | 31.67351 | 118.72257 | 36067 ft | 402 kts | 273° |
| 2026-05-04 21:41 | 31.67827 | 118.65690 | 36089 ft | 402 kts | 274° |
| 2026-05-04 21:42 | 31.68313 | 118.59103 | 36092 ft | 401 kts | 274° |
| 2026-05-04 21:42 | 31.68789 | 118.52570 | 36087 ft | 403 kts | 274° |
| 2026-05-04 21:43 | 31.69263 | 118.46037 | 36088 ft | 401 kts | 274° |
| 2026-05-04 21:43 | 31.69732 | 118.39452 | 36085 ft | 403 kts | 274° |
| 2026-05-04 21:44 | 31.70190 | 118.32922 | 36086 ft | 403 kts | 273° |
| 2026-05-04 21:44 | 31.70649 | 118.26354 | 36086 ft | 403 kts | 273° |
| 2026-05-04 21:45 | 31.71095 | 118.19955 | 36085 ft | 404 kts | 273° |
| 2026-05-04 21:45 | 31.71556 | 118.13339 | 36083 ft | 405 kts | 274° |
| 2026-05-04 21:46 | 31.72020 | 118.06737 | 36090 ft | 405 kts | 274° |
| 2026-05-04 21:46 | 31.72502 | 118.00169 | 36091 ft | 403 kts | 274° |
| 2026-05-04 21:47 | 31.72989 | 117.93581 | 36089 ft | 405 kts | 274° |
| 2026-05-04 21:47 | 31.73473 | 117.86955 | 36086 ft | 407 kts | 274° |
| 2026-05-04 21:48 | 31.73950 | 117.80381 | 36092 ft | 405 kts | 274° |
| 2026-05-04 21:48 | 31.74427 | 117.73709 | 36081 ft | 408 kts | 274° |
| 2026-05-04 21:49 | 31.74898 | 117.67097 | 36082 ft | 408 kts | 274° |
| 2026-05-04 21:49 | 31.75370 | 117.60443 | 36080 ft | 408 kts | 274° |
| 2026-05-04 21:50 | 31.75835 | 117.53782 | 36079 ft | 406 kts | 274° |
| 2026-05-04 21:50 | 31.76293 | 117.47166 | 36079 ft | 407 kts | 274° |
| 2026-05-04 21:51 | 31.76751 | 117.40531 | 36079 ft | 407 kts | 274° |
| 2026-05-04 21:51 | 31.77488 | 117.33933 | 36070 ft | 409 kts | 283° |
| 2026-05-04 21:52 | 31.79665 | 117.27721 | 36065 ft | 413 kts | 297° |
| 2026-05-04 21:52 | 31.83023 | 117.22180 | 36071 ft | 417 kts | 305° |
| 2026-05-04 21:53 | 31.86814 | 117.16949 | 36060 ft | 418 kts | 307° |
| 2026-05-04 21:53 | 31.90638 | 117.11789 | 36064 ft | 419 kts | 307° |
| 2026-05-04 21:54 | 31.94468 | 117.06569 | 36062 ft | 420 kts | 307° |
| 2026-05-04 21:54 | 31.98266 | 117.01334 | 36076 ft | 420 kts | 306° |
| 2026-05-04 21:55 | 32.02047 | 116.96096 | 36068 ft | 420 kts | 307° |
| 2026-05-04 21:55 | 32.05833 | 116.90852 | 36062 ft | 419 kts | 307° |
| 2026-05-04 21:56 | 32.09606 | 116.85621 | 36050 ft | 420 kts | 307° |
| 2026-05-04 21:56 | 32.13417 | 116.80325 | 36054 ft | 420 kts | 307° |
| 2026-05-04 21:57 | 32.17193 | 116.75066 | 36063 ft | 421 kts | 307° |
| 2026-05-04 21:57 | 32.20983 | 116.69746 | 36070 ft | 421 kts | 306° |
| 2026-05-04 21:58 | 32.24698 | 116.64400 | 36062 ft | 419 kts | 306° |
| 2026-05-04 21:58 | 32.28410 | 116.59025 | 36063 ft | 423 kts | 306° |
| 2026-05-04 21:59 | 32.32135 | 116.53633 | 36044 ft | 420 kts | 306° |
| 2026-05-04 21:59 | 32.35850 | 116.48261 | 36046 ft | 421 kts | 306° |
| 2026-05-04 22:00 | 32.39584 | 116.42856 | 36057 ft | 423 kts | 307° |
| 2026-05-04 22:00 | 32.43324 | 116.37433 | 36061 ft | 423 kts | 307° |
| 2026-05-04 22:01 | 32.47044 | 116.32036 | 36239 ft | 424 kts | 306° |
| 2026-05-04 22:01 | 32.48919 | 116.29312 | 36075 ft | 422 kts | 306° |
| 2026-05-04 22:01 | 32.50753 | 116.26648 | 36058 ft | 419 kts | 306° |
| 2026-05-04 22:02 | 32.54455 | 116.21259 | 36145 ft | 423 kts | 307° |
| 2026-05-04 22:02 | 32.58167 | 116.15879 | 35859 ft | 419 kts | 307° |
| 2026-05-04 22:02 | 32.60061 | 116.13199 | 36039 ft | 420 kts | 307° |
| 2026-05-04 22:03 | 32.61963 | 116.10527 | 36046 ft | 425 kts | 308° |
| 2026-05-04 22:03 | 32.65799 | 116.05151 | 36051 ft | 425 kts | 308° |
| 2026-05-04 22:04 | 32.69618 | 115.99786 | 36050 ft | 425 kts | 308° |
| 2026-05-04 22:04 | 32.73418 | 115.94425 | 36054 ft | 426 kts | 308° |
| 2026-05-04 22:05 | 32.77217 | 115.89052 | 36048 ft | 424 kts | 308° |
| 2026-05-04 22:05 | 32.81034 | 115.83644 | 36052 ft | 425 kts | 308° |
| 2026-05-04 22:06 | 32.84850 | 115.78226 | 36048 ft | 425 kts | 308° |
| 2026-05-04 22:06 | 32.88663 | 115.72815 | 36040 ft | 425 kts | 308° |
| 2026-05-04 22:07 | 32.92532 | 115.67465 | 36048 ft | 426 kts | 309° |
| 2026-05-04 22:07 | 32.96448 | 115.62142 | 36044 ft | 426 kts | 309° |
| 2026-05-04 22:08 | 33.00383 | 115.56793 | 36041 ft | 426 kts | 309° |
| 2026-05-04 22:08 | 33.04282 | 115.51470 | 36037 ft | 426 kts | 309° |
| 2026-05-04 22:09 | 33.08182 | 115.46125 | 36031 ft | 427 kts | 309° |
| 2026-05-04 22:09 | 33.12077 | 115.40772 | 36024 ft | 427 kts | 309° |
| 2026-05-04 22:10 | 33.15970 | 115.35410 | 36023 ft | 426 kts | 309° |
| 2026-05-04 22:10 | 33.19881 | 115.30016 | 36030 ft | 425 kts | 309° |
| 2026-05-04 22:11 | 33.23752 | 115.24670 | 36033 ft | 426 kts | 309° |
| 2026-05-04 22:11 | 33.27660 | 115.19270 | 36027 ft | 426 kts | 309° |
| 2026-05-04 22:12 | 33.31506 | 115.13942 | 36027 ft | 424 kts | 309° |
| 2026-05-04 22:12 | 33.35360 | 115.08593 | 36027 ft | 425 kts | 309° |
| 2026-05-04 22:13 | 33.39241 | 115.03201 | 36027 ft | 426 kts | 309° |
| 2026-05-04 22:13 | 33.43115 | 114.97813 | 36028 ft | 425 kts | 309° |
| 2026-05-04 22:14 | 33.47001 | 114.92400 | 36022 ft | 426 kts | 309° |
| 2026-05-04 22:14 | 33.50872 | 114.87000 | 36032 ft | 426 kts | 310° |
| 2026-05-04 22:15 | 33.54744 | 114.81591 | 36020 ft | 426 kts | 310° |
| 2026-05-04 22:15 | 33.58619 | 114.76169 | 36013 ft | 425 kts | 310° |
| 2026-05-04 22:16 | 33.62521 | 114.70787 | 36013 ft | 426 kts | 311° |
| 2026-05-04 22:16 | 33.66560 | 114.65592 | 36002 ft | 425 kts | 316° |
| 2026-05-04 22:17 | 33.71058 | 114.60945 | 36010 ft | 426 kts | 320° |
| 2026-05-04 22:17 | 33.75725 | 114.56500 | 36012 ft | 426 kts | 321° |
| 2026-05-04 22:18 | 33.80901 | 114.52948 | 36012 ft | 429 kts | 337° |
| 2026-05-04 22:18 | 33.86720 | 114.51160 | 36005 ft | 433 kts | 351° |
| 2026-05-04 22:19 | 33.92789 | 114.51104 | 36015 ft | 437 kts | 0° |
| 2026-05-04 22:19 | 33.98923 | 114.51708 | 36015 ft | 437 kts | 2° |
| 2026-05-04 22:20 | 34.05009 | 114.52394 | 36006 ft | 438 kts | 2° |
| 2026-05-04 22:20 | 34.11122 | 114.53050 | 36011 ft | 438 kts | 2° |
| 2026-05-04 22:21 | 34.17231 | 114.53667 | 36011 ft | 436 kts | 2° |
| 2026-05-04 22:21 | 34.23282 | 114.54256 | 35998 ft | 436 kts | 1° |
| 2026-05-04 22:22 | 34.29378 | 114.54839 | 35993 ft | 437 kts | 1° |
| 2026-05-04 22:22 | 34.35460 | 114.55418 | 35998 ft | 438 kts | 1° |
| 2026-05-04 22:23 | 34.41536 | 114.55996 | 36000 ft | 436 kts | 2° |
| 2026-05-04 22:23 | 34.47655 | 114.56581 | 35999 ft | 435 kts | 1° |
| 2026-05-04 22:24 | 34.53706 | 114.57156 | 35986 ft | 435 kts | 1° |
| 2026-05-04 22:24 | 34.59753 | 114.57729 | 35982 ft | 435 kts | 2° |
| 2026-05-04 22:25 | 34.65825 | 114.58305 | 35990 ft | 436 kts | 1° |
| 2026-05-04 22:25 | 34.71929 | 114.58884 | 35991 ft | 436 kts | 2° |
| 2026-05-04 22:26 | 34.77971 | 114.59462 | 35986 ft | 434 kts | 2° |
| 2026-05-04 22:26 | 34.84064 | 114.60043 | 35994 ft | 435 kts | 2° |
| 2026-05-04 22:27 | 34.90072 | 114.60619 | 35985 ft | 433 kts | 2° |
| 2026-05-04 22:27 | 34.96099 | 114.61193 | 35981 ft | 433 kts | 2° |
| 2026-05-04 22:28 | 35.02152 | 114.61773 | 35980 ft | 432 kts | 2° |
| 2026-05-04 22:28 | 35.08154 | 114.62348 | 35983 ft | 433 kts | 2° |
| 2026-05-04 22:29 | 35.14196 | 114.62928 | 35969 ft | 432 kts | 2° |
| 2026-05-04 22:29 | 35.20201 | 114.63506 | 35979 ft | 432 kts | 2° |
| 2026-05-04 22:30 | 35.26295 | 114.64095 | 35973 ft | 431 kts | 2° |
| 2026-05-04 22:30 | 35.32267 | 114.64672 | 35967 ft | 430 kts | 2° |
| 2026-05-04 22:31 | 35.38248 | 114.65250 | 35968 ft | 431 kts | 2° |
| 2026-05-04 22:31 | 35.44228 | 114.65829 | 35966 ft | 430 kts | 2° |
| 2026-05-04 22:32 | 35.50232 | 114.66412 | 35963 ft | 429 kts | 2° |
| 2026-05-04 22:32 | 35.56193 | 114.66993 | 35962 ft | 429 kts | 2° |
| 2026-05-04 22:33 | 35.62201 | 114.67575 | 35963 ft | 428 kts | 2° |
| 2026-05-04 22:33 | 35.68172 | 114.68154 | 35956 ft | 428 kts | 2° |
| 2026-05-04 22:34 | 35.74132 | 114.68734 | 35953 ft | 428 kts | 2° |
| 2026-05-04 22:34 | 35.80130 | 114.69321 | 35951 ft | 428 kts | 2° |
| 2026-05-04 22:35 | 35.86069 | 114.69902 | 35945 ft | 427 kts | 2° |
| 2026-05-04 22:35 | 35.92023 | 114.70486 | 35946 ft | 426 kts | 2° |
| 2026-05-04 22:36 | 35.97933 | 114.71069 | 35951 ft | 428 kts | 2° |
| 2026-05-04 22:36 | 36.03723 | 114.71639 | 35947 ft | 426 kts | 2° |
| 2026-05-04 22:37 | 36.09675 | 114.72224 | 35939 ft | 427 kts | 2° |
| 2026-05-04 22:37 | 36.15585 | 114.72802 | 35945 ft | 427 kts | 2° |
| 2026-05-04 22:38 | 36.21535 | 114.73383 | 35942 ft | 426 kts | 2° |
| 2026-05-04 22:38 | 36.27518 | 114.73968 | 35939 ft | 426 kts | 2° |
| 2026-05-04 22:39 | 36.33454 | 114.74560 | 35938 ft | 427 kts | 2° |
| 2026-05-04 22:39 | 36.39359 | 114.74977 | 35940 ft | 425 kts | 358° |
| 2026-05-04 22:40 | 36.45294 | 114.74802 | 35934 ft | 425 kts | 356° |
| 2026-05-04 22:40 | 36.51196 | 114.74461 | 35928 ft | 424 kts | 355° |
| 2026-05-04 22:41 | 36.57100 | 114.74128 | 35939 ft | 424 kts | 356° |
| 2026-05-04 22:41 | 36.63043 | 114.73822 | 35934 ft | 424 kts | 356° |
| 2026-05-04 22:42 | 36.68946 | 114.73541 | 35917 ft | 424 kts | 356° |
| 2026-05-04 22:42 | 36.74843 | 114.73466 | 35919 ft | 425 kts | 2° |
| 2026-05-04 22:43 | 36.80662 | 114.74998 | 35929 ft | 430 kts | 16° |
| 2026-05-04 22:43 | 36.86222 | 114.77850 | 35912 ft | 431 kts | 21° |
| 2026-05-04 22:44 | 36.91656 | 114.81042 | 35908 ft | 432 kts | 22° |
| 2026-05-04 22:44 | 36.97134 | 114.84313 | 35912 ft | 432 kts | 22° |
| 2026-05-04 22:45 | 37.02561 | 114.87531 | 35896 ft | 432 kts | 22° |
| 2026-05-04 22:45 | 37.10752 | 114.92351 | 35905 ft | 432 kts | 22° |
| 2026-05-04 22:46 | 37.16232 | 114.95567 | 35914 ft | 433 kts | 22° |
| 2026-05-04 22:46 | 37.21714 | 114.98783 | 35904 ft | 432 kts | 22° |
| 2026-05-04 22:47 | 37.27152 | 115.01981 | 35897 ft | 432 kts | 22° |
| 2026-05-04 22:47 | 37.32622 | 115.05202 | 35898 ft | 431 kts | 22° |
| 2026-05-04 22:48 | 37.38059 | 115.08407 | 35897 ft | 431 kts | 22° |
| 2026-05-04 22:48 | 37.43513 | 115.11626 | 35903 ft | 431 kts | 22° |
| 2026-05-04 22:49 | 37.48983 | 115.14860 | 35920 ft | 431 kts | 22° |
| 2026-05-04 22:49 | 37.54450 | 115.18098 | 35906 ft | 431 kts | 22° |
| 2026-05-04 22:50 | 37.59895 | 115.21327 | 35626 ft | 424 kts | 22° |
| 2026-05-04 22:50 | 37.62553 | 115.22908 | 35203 ft | 421 kts | 22° |
| 2026-05-04 22:50 | 37.65210 | 115.24487 | 34583 ft | 422 kts | 22° |
| 2026-05-04 22:51 | 37.67860 | 115.26062 | 33829 ft | 424 kts | 22° |
| 2026-05-04 22:51 | 37.70526 | 115.27642 | 32958 ft | 427 kts | 22° |
| 2026-05-04 22:51 | 37.73276 | 115.29202 | 31828 ft | 434 kts | 20° |
| 2026-05-04 22:51 | 37.76181 | 115.30486 | 30763 ft | 437 kts | 13° |
| 2026-05-04 22:52 | 37.79151 | 115.31167 | 30298 ft | 427 kts | 5° |
| 2026-05-04 22:52 | 37.82130 | 115.31405 | 30008 ft | 415 kts | 0° |
| 2026-05-04 22:52 | 37.84947 | 115.31412 | 29774 ft | 403 kts | 358° |
| 2026-05-04 22:52 | 37.87733 | 115.31163 | 29551 ft | 391 kts | 352° |
| 2026-05-04 22:53 | 37.90358 | 115.30530 | 29351 ft | 379 kts | 346° |
| 2026-05-04 22:53 | 37.92861 | 115.29678 | 29174 ft | 368 kts | 344° |
| 2026-05-04 22:53 | 37.95274 | 115.28753 | 29023 ft | 355 kts | 343° |
| 2026-05-04 22:53 | 37.97618 | 115.27821 | 28778 ft | 346 kts | 343° |
| 2026-05-04 22:54 | 37.99916 | 115.26923 | 28261 ft | 346 kts | 343° |
| 2026-05-04 22:54 | 38.02206 | 115.26038 | 27754 ft | 344 kts | 343° |
| 2026-05-04 22:54 | 38.04507 | 115.25153 | 27247 ft | 342 kts | 343° |
| 2026-05-04 22:54 | 38.06793 | 115.24278 | 26795 ft | 339 kts | 343° |
| 2026-05-04 22:55 | 38.09064 | 115.23405 | 26246 ft | 339 kts | 343° |
| 2026-05-04 22:55 | 38.11300 | 115.22543 | 25765 ft | 337 kts | 343° |
| 2026-05-04 22:55 | 38.13525 | 115.21687 | 25278 ft | 335 kts | 343° |
| 2026-05-04 22:55 | 38.15767 | 115.20828 | 24802 ft | 333 kts | 343° |
| 2026-05-04 22:56 | 38.17979 | 115.19983 | 24303 ft | 332 kts | 343° |
| 2026-05-04 22:56 | 38.20183 | 115.19142 | 23826 ft | 330 kts | 343° |
| 2026-05-04 22:56 | 38.22414 | 115.18292 | 23376 ft | 327 kts | 343° |
| 2026-05-04 22:56 | 38.24515 | 115.17492 | 22926 ft | 326 kts | 343° |
| 2026-05-04 22:57 | 38.26680 | 115.16667 | 22505 ft | 323 kts | 343° |
| 2026-05-04 22:57 | 38.28589 | 115.15939 | 22093 ft | 322 kts | 343° |
| 2026-05-04 22:57 | 38.30512 | 115.15205 | 21704 ft | 320 kts | 343° |
| 2026-05-04 22:57 | 38.32484 | 115.14451 | 21308 ft | 318 kts | 343° |
| 2026-05-04 22:58 | 38.34157 | 115.13812 | 20984 ft | 316 kts | 343° |
| 2026-05-04 22:58 | 38.35926 | 115.13135 | 20604 ft | 315 kts | 343° |
| 2026-05-04 22:58 | 38.38003 | 115.12340 | 20191 ft | 313 kts | 343° |
| 2026-05-04 22:59 | 38.40088 | 115.11541 | 19762 ft | 311 kts | 343° |
| 2026-05-04 22:59 | 38.42028 | 115.10797 | 19379 ft | 309 kts | 342° |
| 2026-05-04 22:59 | 38.44080 | 115.10010 | 18934 ft | 307 kts | 342° |
| 2026-05-04 22:59 | 38.46115 | 115.09231 | 18517 ft | 305 kts | 342° |
| 2026-05-04 23:00 | 38.48150 | 115.08452 | 18098 ft | 304 kts | 342° |
| 2026-05-04 23:00 | 38.50160 | 115.07682 | 17702 ft | 301 kts | 342° |
| 2026-05-04 23:00 | 38.52178 | 115.06908 | 17224 ft | 302 kts | 342° |
| 2026-05-04 23:00 | 38.54181 | 115.06139 | 16778 ft | 302 kts | 342° |
| 2026-05-04 23:01 | 38.56204 | 115.05360 | 16320 ft | 302 kts | 342° |
| 2026-05-04 23:01 | 38.58219 | 115.04583 | 15880 ft | 301 kts | 342° |
| 2026-05-04 23:01 | 38.60226 | 115.03809 | 15434 ft | 301 kts | 341° |
| 2026-05-04 23:01 | 38.62221 | 115.03040 | 14997 ft | 301 kts | 341° |
| 2026-05-04 23:02 | 38.64246 | 115.02258 | 14558 ft | 301 kts | 341° |
| 2026-05-04 23:02 | 38.66238 | 115.01490 | 14397 ft | 290 kts | 341° |
| 2026-05-04 23:02 | 38.68135 | 115.00760 | 14303 ft | 278 kts | 341° |
| 2026-05-04 23:02 | 38.69937 | 115.00066 | 14185 ft | 268 kts | 340° |
| 2026-05-04 23:03 | 38.71689 | 114.99306 | 13897 ft | 264 kts | 333° |
| 2026-05-04 23:03 | 38.73204 | 114.98006 | 13484 ft | 261 kts | 307° |
| 2026-05-04 23:03 | 38.74020 | 114.95979 | 13120 ft | 254 kts | 280° |
| 2026-05-04 23:03 | 38.74134 | 114.93780 | 12801 ft | 249 kts | 263° |
| 2026-05-04 23:04 | 38.73795 | 114.91630 | 12464 ft | 247 kts | 249° |
| 2026-05-04 23:04 | 38.73101 | 114.89630 | 12121 ft | 245 kts | 243° |
| 2026-05-04 23:04 | 38.72336 | 114.87689 | 11762 ft | 244 kts | 243° |
| 2026-05-04 23:04 | 38.71594 | 114.85743 | 11448 ft | 242 kts | 244° |
| 2026-05-04 23:05 | 38.70876 | 114.83775 | 11130 ft | 241 kts | 244° |
| 2026-05-04 23:05 | 38.70187 | 114.81847 | 10826 ft | 239 kts | 244° |
| 2026-05-04 23:05 | 38.69491 | 114.79891 | 10478 ft | 238 kts | 244° |
| 2026-05-04 23:05 | 38.68855 | 114.78108 | 10158 ft | 238 kts | 245° |
| 2026-05-04 23:06 | 38.68209 | 114.76273 | 9851 ft | 236 kts | 244° |
| 2026-05-04 23:06 | 38.67524 | 114.74364 | 9563 ft | 234 kts | 244° |
| 2026-05-04 23:06 | 38.66851 | 114.72469 | 9247 ft | 234 kts | 244° |
| 2026-05-04 23:06 | 38.66179 | 114.70590 | 8984 ft | 231 kts | 244° |
| 2026-05-04 23:07 | 38.65505 | 114.68714 | 8672 ft | 230 kts | 244° |
| 2026-05-04 23:07 | 38.64838 | 114.66859 | 8383 ft | 228 kts | 244° |
| 2026-05-04 23:07 | 38.64175 | 114.65015 | 8082 ft | 227 kts | 244° |
| 2026-05-04 23:07 | 38.63520 | 114.63193 | 7793 ft | 226 kts | 244° |
| 2026-05-04 23:08 | 38.62863 | 114.61366 | 7499 ft | 225 kts | 244° |
| 2026-05-04 23:08 | 38.62209 | 114.59547 | 7193 ft | 224 kts | 244° |
| 2026-05-04 23:08 | 38.61559 | 114.57744 | 6908 ft | 223 kts | 244° |
| 2026-05-04 23:08 | 38.60919 | 114.55967 | 6619 ft | 221 kts | 244° |
| 2026-05-04 23:09 | 38.60218 | 114.54228 | 6323 ft | 219 kts | 235° |
| 2026-05-04 23:09 | 38.59110 | 114.52904 | 5994 ft | 219 kts | 206° |
| 2026-05-04 23:09 | 38.57625 | 114.52502 | 5690 ft | 223 kts | 181° |
| 2026-05-04 23:09 | 38.56179 | 114.52763 | 5534 ft | 217 kts | 172° |
| 2026-05-04 23:10 | 38.54797 | 114.53136 | 5443 ft | 206 kts | 172° |
| 2026-05-04 23:10 | 38.53413 | 114.53496 | 5288 ft | 200 kts | 173° |
| 2026-05-04 23:10 | 38.52045 | 114.53839 | 5054 ft | 199 kts | 173° |
| 2026-05-04 23:10 | 38.50693 | 114.54179 | 4867 ft | 193 kts | 172° |
| 2026-05-04 23:11 | 38.49397 | 114.54511 | 4751 ft | 184 kts | 172° |
| 2026-05-04 23:11 | 38.48166 | 114.54818 | 4566 ft | 178 kts | 174° |
| 2026-05-04 23:11 | 38.46926 | 114.55061 | 4270 ft | 178 kts | 172° |
| 2026-05-04 23:11 | 38.45758 | 114.55546 | 4077 ft | 177 kts | 158° |
| 2026-05-04 23:12 | 38.44709 | 114.56279 | 3841 ft | 175 kts | 152° |
| 2026-05-04 23:12 | 38.43670 | 114.57096 | 3612 ft | 170 kts | 150° |
| 2026-05-04 23:12 | 38.42680 | 114.57893 | 3346 ft | 169 kts | 150° |
| 2026-05-04 23:12 | 38.41695 | 114.58693 | 3117 ft | 164 kts | 150° |
| 2026-05-04 23:13 | 38.40748 | 114.59461 | 2903 ft | 160 kts | 150° |
| 2026-05-04 23:13 | 38.39818 | 114.60217 | 2687 ft | 156 kts | 150° |
| 2026-05-04 23:13 | 38.38903 | 114.60957 | 2529 ft | 156 kts | 150° |
| 2026-05-04 23:13 | 38.37988 | 114.61700 | 2282 ft | 153 kts | 149° |
| 2026-05-04 23:14 | 38.37087 | 114.62431 | 2087 ft | 153 kts | 149° |
| 2026-05-04 23:14 | 38.36186 | 114.63161 | 1871 ft | 152 kts | 149° |
| 2026-05-04 23:14 | 38.35304 | 114.63876 | 1663 ft | 151 kts | 149° |
| 2026-05-04 23:14 | 38.34412 | 114.64598 | 1455 ft | 151 kts | 149° |
| 2026-05-04 23:15 | 38.33521 | 114.65321 | 1249 ft | 150 kts | 148° |
| 2026-05-04 23:15 | 38.32637 | 114.66035 | 1046 ft | 150 kts | 148° |
| 2026-05-04 23:15 | 38.31755 | 114.66750 | 840 ft | 150 kts | 148° |
| 2026-05-04 23:15 | 38.30877 | 114.67464 | 618 ft | 150 kts | 147° |
| 2026-05-04 23:16 | 38.30004 | 114.68171 | 386 ft | 146 kts | 149° |
| 2026-05-04 23:16 | 38.29151 | 114.68840 | 247 ft | 138 kts | 148° |
| 2026-05-04 23:16 | 38.28548 | 114.69340 | 239 ft | 82 kts | 148° |
| 2026-05-04 23:16 | 38.28230 | 114.69599 | 238 ft | 40 kts | 148° |
| 2026-05-04 23:17 | 38.27993 | 114.69792 | 235 ft | 35 kts | 147° |
| 2026-05-04 23:17 | 38.27909 | 114.69861 | 235 ft | 0 kts | 153° |
| 2026-05-04 23:17 | 38.27893 | 114.69860 | 235 ft | 6 kts | 191° |
| 2026-05-04 23:17 | 38.27828 | 114.69805 | 235 ft | 16 kts | 238° |
| 2026-05-04 23:18 | 38.27781 | 114.69710 | 235 ft | 11 kts | 238° |
| 2026-05-04 23:18 | 38.27743 | 114.69632 | 236 ft | 8 kts | 238° |
| 2026-05-04 23:18 | 38.27726 | 114.69570 | 237 ft | 6 kts | 282° |
| 2026-05-04 23:18 | 38.27755 | 114.69536 | 238 ft | 5 kts | 328° |
| 2026-05-04 23:19 | 38.27783 | 114.69513 | 238 ft | 4 kts | 327° |
| 2026-05-04 23:19 | 38.27805 | 114.69495 | 238 ft | 3 kts | 327° |
| 2026-05-04 23:19 | 38.27822 | 114.69478 | 238 ft | 2 kts | 307° |
| 2026-05-04 23:19 | 38.27828 | 114.69450 | 238 ft | 4 kts | 269° |
| 2026-05-04 23:20 | 38.27812 | 114.69407 | 238 ft | 5 kts | 238° |
| 2026-05-04 23:20 | 38.27799 | 114.69380 | 238 ft | 1 kts | 238° |
| 2026-05-04 23:20 | 38.27798 | 114.69378 | 238 ft | 0 kts | 238° |